Time;durP1;ratioP1;P1;durP2;ratioP2;P2;SDS_P1;SDS_P2;PMS_P1;PMS_P2;Temp;Humidity;BMP_temperature;BMP_pressure;BME280_temperature;BME280_humidity;BME280_pressure;Samples;Min_cycle;Max_cycle;Signal;HPM_P1;HPM_P2
2023/04/26 00:00:54;;;;;;;12.57;4.10;;;3.90;1.00;;;;;;5065054;28;20600;-72
2023/04/26 00:03:22;;;;;;;9.57;3.87;;;3.90;1.00;;;;;;5065027;28;20219;-71
2023/04/26 00:05:49;;;;;;;9.53;3.90;;;4.00;1.00;;;;;;5058930;28;20200;-70
2023/04/26 00:08:16;;;;;;;8.83;3.53;;;3.90;1.00;;;;;;5065592;28;20557;-71
2023/04/26 00:10:43;;;;;;;6.97;3.23;;;3.80;1.00;;;;;;5066453;28;20605;-71
2023/04/26 00:13:10;;;;;;;10.40;3.77;;;3.70;1.00;;;;;;5058102;28;20222;-70
2023/04/26 00:15:37;;;;;;;8.23;4.33;;;3.70;1.00;;;;;;5065585;28;20205;-71
2023/04/26 00:18:04;;;;;;;10.73;3.87;;;3.60;1.00;;;;;;5048640;28;20686;-71
2023/04/26 00:20:31;;;;;;;11.07;3.67;;;3.60;1.00;;;;;;5069309;28;20187;-71
2023/04/26 00:22:58;;;;;;;6.37;3.57;;;3.60;1.00;;;;;;5041715;28;20203;-71
2023/04/26 00:25:26;;;;;;;6.93;3.33;;;3.40;1.00;;;;;;5048065;28;20211;-73
2023/04/26 00:27:53;;;;;;;9.70;3.53;;;3.40;1.00;;;;;;5068096;28;20244;-71
2023/04/26 00:30:20;;;;;;;5.97;3.50;;;3.40;1.00;;;;;;5039609;28;20206;-70
2023/04/26 00:32:47;;;;;;;11.33;3.83;;;3.40;1.00;;;;;;5033528;28;22296;-70
2023/04/26 00:35:14;;;;;;;7.20;3.30;;;3.40;1.00;;;;;;5064079;28;20184;-70
2023/04/26 00:37:42;;;;;;;7.87;3.43;;;3.30;1.00;;;;;;5040320;28;20253;-70
2023/04/26 00:40:10;;;;;;;11.03;3.47;;;3.30;1.00;;;;;;5044996;28;20273;-70
2023/04/26 00:42:38;;;;;;;6.43;3.47;;;3.30;1.00;;;;;;5058160;28;20244;-70
2023/04/26 00:45:06;;;;;;;15.20;9.10;;;3.20;1.00;;;;;;5051680;28;20198;-68
2023/04/26 00:47:34;;;;;;;14.50;5.20;;;3.20;1.00;;;;;;5048804;28;20203;-68
2023/04/26 00:50:02;;;;;;;5.90;3.90;;;3.20;1.00;;;;;;5048085;28;20203;-68
2023/04/26 00:52:30;;;;;;;10.63;4.63;;;3.20;1.00;;;;;;5051890;28;20199;-72
2023/04/26 00:54:57;;;;;;;8.77;4.97;;;3.10;1.00;;;;;;5050625;28;20199;-73
2023/04/26 00:57:25;;;;;;;6.87;4.20;;;3.00;1.00;;;;;;5050979;28;20700;-72
2023/04/26 00:59:52;;;;;;;11.40;4.70;;;3.00;1.00;;;;;;5060743;28;20188;-72
2023/04/26 01:02:19;;;;;;;13.50;5.70;;;2.90;1.00;;;;;;5003276;28;20283;-71
2023/04/26 01:04:47;;;;;;;9.97;4.83;;;2.90;1.00;;;;;;5020892;28;20192;-72
2023/04/26 01:07:15;;;;;;;11.17;4.53;;;2.90;1.00;;;;;;5026501;28;20201;-72
2023/04/26 01:09:43;;;;;;;9.50;4.30;;;2.80;1.00;;;;;;5002148;28;20211;-70
2023/04/26 01:12:11;;;;;;;7.53;4.60;;;2.80;1.00;;;;;;5025463;28;20234;-71
2023/04/26 01:14:39;;;;;;;14.70;4.93;;;2.90;1.00;;;;;;5027210;28;20216;-70
2023/04/26 01:17:07;;;;;;;13.70;5.33;;;2.90;1.00;;;;;;5022275;28;20259;-70
2023/04/26 01:19:36;;;;;;;9.60;4.20;;;2.90;1.00;;;;;;5019987;28;20628;-69
2023/04/26 01:22:03;;;;;;;10.80;4.70;;;2.90;1.00;;;;;;5019099;28;20660;-69
2023/04/26 01:24:31;;;;;;;8.80;4.70;;;2.80;1.00;;;;;;5016631;28;20605;-69
2023/04/26 01:26:58;;;;;;;7.03;4.30;;;2.80;1.00;;;;;;5024576;28;20204;-69
2023/04/26 01:29:26;;;;;;;12.17;5.13;;;2.70;1.00;;;;;;5023703;28;20227;-69
2023/04/26 01:31:53;;;;;;;7.57;4.77;;;2.70;1.00;;;;;;5024834;28;20570;-69
2023/04/26 01:34:20;;;;;;;9.10;4.10;;;2.70;1.00;;;;;;5038139;28;20205;-69
2023/04/26 01:36:47;;;;;;;11.43;4.43;;;2.60;1.00;;;;;;5023501;28;20568;-69
2023/04/26 01:39:14;;;;;;;13.03;4.50;;;2.60;1.00;;;;;;5023439;28;20545;-69
2023/04/26 01:41:41;;;;;;;11.53;5.23;;;2.70;1.00;;;;;;5008274;28;20188;-69
2023/04/26 01:44:08;;;;;;;11.33;5.77;;;2.70;1.00;;;;;;5024260;28;20234;-72
2023/04/26 01:46:35;;;;;;;14.57;4.47;;;2.60;1.00;;;;;;5023576;28;20186;-71
2023/04/26 01:49:03;;;;;;;12.10;4.20;;;2.70;1.00;;;;;;5021136;28;20192;-71
2023/04/26 01:51:31;;;;;;;11.67;5.00;;;2.60;1.00;;;;;;5025219;28;20239;-71
2023/04/26 01:53:58;;;;;;;12.97;4.77;;;2.60;1.00;;;;;;5022373;28;20196;-72
2023/04/26 01:56:25;;;;;;;7.43;4.70;;;2.60;1.00;;;;;;5025810;28;20294;-74
2023/04/26 01:58:55;;;;;;;11.83;5.00;;;2.60;1.00;;;;;;5023084;28;20196;-73
2023/04/26 02:01:22;;;;;;;7.47;4.67;;;2.50;1.00;;;;;;5035111;28;20309;-73
2023/04/26 02:03:50;;;;;;;13.53;4.93;;;2.50;1.00;;;;;;5055249;28;20218;-74
2023/04/26 02:06:18;;;;;;;10.53;5.47;;;2.50;1.00;;;;;;5043444;28;20536;-75
2023/04/26 02:08:45;;;;;;;13.83;4.73;;;2.30;1.00;;;;;;5063917;28;20191;-76
2023/04/26 02:11:13;;;;;;;11.70;5.37;;;2.30;1.00;;;;;;5050587;28;20199;-77
2023/04/26 02:13:40;;;;;;;11.20;4.73;;;2.20;1.00;;;;;;5072547;28;20203;-77
2023/04/26 02:16:07;;;;;;;14.67;5.33;;;2.20;1.00;;;;;;5059562;28;20200;-77
2023/04/26 02:18:34;;;;;;;11.13;5.60;;;2.10;1.00;;;;;;5055705;28;20190;-72
2023/04/26 02:21:01;;;;;;;11.13;5.37;;;2.10;1.00;;;;;;5041219;22;20246;-72
2023/04/26 02:23:30;;;;;;;11.50;5.33;;;2.00;1.00;;;;;;4972757;28;20226;-72
2023/04/26 02:25:57;;;;;;;13.30;5.73;;;2.00;1.00;;;;;;4978818;28;20182;-72
2023/04/26 02:28:24;;;;;;;11.30;6.10;;;2.00;1.00;;;;;;4980534;28;20341;-70
2023/04/26 02:30:55;;;;;;;13.83;5.70;;;2.00;1.00;;;;;;4959808;28;20237;-70
2023/04/26 02:33:23;;;;;;;8.93;5.70;;;2.00;1.00;;;;;;4976303;28;20185;-70
2023/04/26 02:35:50;;;;;;;11.93;5.47;;;1.90;1.00;;;;;;4972341;28;20531;-69
2023/04/26 02:38:18;;;;;;;9.23;5.30;;;1.90;1.00;;;;;;4970842;28;20234;-69
2023/04/26 02:40:45;;;;;;;13.10;5.67;;;1.90;1.00;;;;;;4989508;28;20777;-69
2023/04/26 02:43:12;;;;;;;9.97;5.57;;;2.00;1.00;;;;;;4968964;28;20199;-69
2023/04/26 02:45:42;;;;;;;14.20;6.53;;;2.00;1.00;;;;;;4977460;28;20598;-70
2023/04/26 02:48:12;;;;;;;11.23;6.50;;;2.10;1.00;;;;;;4982455;28;20206;-69
2023/04/26 02:50:39;;;;;;;13.07;6.33;;;2.10;1.00;;;;;;4972103;28;20575;-69
2023/04/26 02:53:06;;;;;;;13.37;6.30;;;2.20;1.00;;;;;;4972778;28;20210;-69
2023/04/26 02:55:33;;;;;;;14.33;6.30;;;2.20;1.00;;;;;;4968469;28;20202;-69
2023/04/26 02:58:00;;;;;;;15.13;6.60;;;2.20;1.00;;;;;;4965792;28;20648;-68
2023/04/26 03:00:27;;;;;;;14.00;6.87;;;2.10;1.00;;;;;;4969121;28;20194;-67
2023/04/26 03:02:55;;;;;;;15.13;7.53;;;2.10;1.00;;;;;;4974615;28;20262;-71
2023/04/26 03:05:23;;;;;;;23.60;10.80;;;2.10;1.00;;;;;;4986261;28;20226;-69
2023/04/26 03:07:50;;;;;;;16.10;9.27;;;2.00;1.00;;;;;;4981710;28;20232;-67
2023/04/26 03:10:17;;;;;;;19.10;9.10;;;2.00;1.00;;;;;;4975560;28;20221;-70
2023/04/26 03:12:44;;;;;;;14.50;6.40;;;2.00;1.00;;;;;;4966751;28;20626;-73
2023/04/26 03:15:12;;;;;;;13.27;7.17;;;1.90;1.00;;;;;;4973670;28;20203;-73
2023/04/26 03:17:41;;;;;;;13.60;7.67;;;1.80;1.00;;;;;;4987290;28;20210;-71
2023/04/26 03:20:10;;;;;;;16.30;8.20;;;1.80;1.00;;;;;;4979063;28;20241;-74
2023/04/26 03:22:38;;;;;;;11.53;9.13;;;1.80;1.00;;;;;;4994867;28;20194;-73
2023/04/26 03:25:06;;;;;;;14.57;8.13;;;1.80;1.00;;;;;;4960302;28;20299;-74
2023/04/26 03:27:33;;;;;;;18.37;7.93;;;1.80;1.00;;;;;;4971004;28;20260;-73
2023/04/26 03:30:00;;;;;;;12.10;7.03;;;1.70;1.00;;;;;;4986402;28;20209;-73
2023/04/26 03:32:28;;;;;;;13.87;7.13;;;1.70;1.00;;;;;;4959840;28;20199;-72
2023/04/26 03:34:55;;;;;;;11.80;7.27;;;1.60;1.00;;;;;;4969339;28;20236;-73
2023/04/26 03:37:22;;;;;;;17.97;7.93;;;1.60;1.00;;;;;;4970827;28;20623;-73
2023/04/26 03:39:56;;;;;;;13.87;7.70;;;1.70;1.00;;;;;;4955020;28;20670;-74
2023/04/26 03:42:23;;;;;;;11.63;7.43;;;1.70;1.00;;;;;;4988674;28;20296;-73
2023/04/26 03:44:50;;;;;;;16.43;7.23;;;1.60;1.00;;;;;;4979993;28;20658;-75
2023/04/26 03:47:17;;;;;;;15.57;8.27;;;1.60;1.00;;;;;;4978351;28;20711;-74
2023/04/26 03:49:44;;;;;;;11.00;8.20;;;1.50;1.00;;;;;;4971276;28;20707;-73
2023/04/26 03:52:11;;;;;;;14.73;8.40;;;1.50;1.00;;;;;;4982876;28;20717;-74
2023/04/26 03:54:38;;;;;;;13.80;7.77;;;1.60;1.00;;;;;;4976183;28;20284;-74
2023/04/26 03:57:05;;;;;;;18.87;9.30;;;1.50;1.00;;;;;;4976051;28;20209;-74
2023/04/26 03:59:32;;;;;;;16.03;7.70;;;1.50;1.00;;;;;;4959616;28;20199;-74
2023/04/26 04:01:59;;;;;;;18.10;8.03;;;1.40;1.00;;;;;;4956591;28;20222;-74
2023/04/26 04:04:26;;;;;;;12.17;7.63;;;1.40;1.00;;;;;;4978367;28;20685;-73
2023/04/26 04:06:54;;;;;;;19.80;9.07;;;1.40;1.00;;;;;;4956531;28;20234;-75
2023/04/26 04:09:21;;;;;;;13.73;8.10;;;1.30;1.00;;;;;;4961496;28;20240;-73
2023/04/26 04:11:49;;;;;;;21.10;12.23;;;1.30;1.00;;;;;;4961361;28;20213;-74
2023/04/26 04:14:16;;;;;;;48.23;28.63;;;1.40;1.00;;;;;;4975627;28;20670;-73
2023/04/26 04:16:45;;;;;;;24.17;14.10;;;1.50;1.00;;;;;;4975395;28;20865;-71
2023/04/26 04:19:12;;;;;;;20.47;10.00;;;1.60;1.00;;;;;;4985279;28;20202;-72
2023/04/26 04:21:41;;;;;;;21.50;10.50;;;1.60;1.00;;;;;;4995668;28;20244;-72
2023/04/26 04:24:08;;;;;;;16.33;9.50;;;1.70;1.00;;;;;;4997509;28;20220;-73
2023/04/26 04:26:36;;;;;;;17.53;10.23;;;1.70;1.00;;;;;;4991276;28;20276;-71
2023/04/26 04:29:07;;;;;;;19.57;10.00;;;1.70;1.00;;;;;;5002571;28;20192;-72
2023/04/26 04:31:36;;;;;;;16.43;8.77;;;1.80;1.00;;;;;;5010846;28;20201;-73
2023/04/26 04:34:03;;;;;;;20.87;11.47;;;2.00;1.00;;;;;;4985675;28;20286;-71
2023/04/26 04:36:31;;;;;;;17.63;8.83;;;2.00;1.00;;;;;;4984726;28;20193;-73
2023/04/26 04:38:58;;;;;;;17.57;8.47;;;2.10;1.00;;;;;;5004068;28;20223;-73
2023/04/26 04:41:26;;;;;;;18.03;9.60;;;2.20;1.00;;;;;;5003413;28;20693;-73
2023/04/26 04:43:54;;;;;;;15.30;8.37;;;2.20;1.00;;;;;;5016609;28;20189;-73
2023/04/26 04:46:21;;;;;;;19.60;9.67;;;2.30;1.00;;;;;;4998204;28;20216;-73
2023/04/26 04:48:49;;;;;;;19.23;10.13;;;2.40;1.00;;;;;;5019587;28;20246;-73
2023/04/26 04:51:16;;;;;;;14.70;10.13;;;2.40;1.00;;;;;;5002946;28;20204;-73
2023/04/26 04:53:43;;;;;;;18.30;11.07;;;2.50;1.00;;;;;;4997682;28;20223;-73
2023/04/26 04:56:10;;;;;;;26.53;11.03;;;2.60;1.00;;;;;;5005772;28;20197;-74
2023/04/26 04:58:37;;;;;;;20.53;11.20;;;2.60;1.00;;;;;;5012731;28;20236;-74
2023/04/26 05:01:04;;;;;;;22.10;11.20;;;2.80;1.00;;;;;;4991704;28;20197;-72
2023/04/26 05:03:44;;;;;;;24.03;10.57;;;2.80;1.00;;;;;;4995716;28;20722;-74
2023/04/26 05:06:12;;;;;;;16.80;9.17;;;2.90;1.00;;;;;;4975270;28;20193;-74
2023/04/26 05:08:39;;;;;;;23.27;12.10;;;3.00;1.00;;;;;;4990633;28;20205;-73
2023/04/26 05:11:08;;;;;;;21.73;11.60;;;3.00;1.00;;;;;;5010272;28;20276;-73
2023/04/26 05:13:35;;;;;;;17.37;9.07;;;3.10;1.00;;;;;;4996664;28;20233;-74
2023/04/26 05:16:03;;;;;;;15.37;9.23;;;3.20;1.00;;;;;;5011560;28;20193;-72
2023/04/26 05:18:30;;;;;;;15.60;9.27;;;3.40;1.00;;;;;;4988975;28;20604;-74
2023/04/26 05:21:01;;;;;;;24.53;8.83;;;3.40;1.00;;;;;;4999378;28;20235;-74
2023/04/26 05:23:28;;;;;;;18.00;9.17;;;3.50;1.00;;;;;;5006830;28;20584;-72
2023/04/26 05:25:56;;;;;;;13.87;8.20;;;3.70;1.00;;;;;;5014228;28;20203;-74
2023/04/26 05:28:42;;;;;;;20.40;9.03;;;3.90;1.00;;;;;;4999087;28;20208;-73
2023/04/26 05:31:32;;;;;;;16.23;8.10;;;4.30;1.00;;;;;;5006710;28;20213;-72
2023/04/26 05:34:07;;;;;;;16.17;8.23;;;5.40;1.00;;;;;;5015449;28;20208;-73
2023/04/26 05:36:36;;;;;;;12.97;6.93;;;8.00;1.00;;;;;;5004247;28;20906;-71
2023/04/26 05:39:07;;;;;;;11.67;6.30;;;10.00;1.00;;;;;;4996113;28;20223;-74
2023/04/26 05:41:34;;;;;;;10.47;6.33;;;10.90;1.00;;;;;;4987860;28;20195;-74
2023/04/26 05:44:01;;;;;;;11.17;5.93;;;11.70;1.00;;;;;;5012847;28;20576;-74
2023/04/26 05:46:28;;;;;;;14.30;6.43;;;13.00;1.00;;;;;;4998772;28;20201;-74
2023/04/26 05:48:55;;;;;;;18.00;7.20;;;13.10;1.00;;;;;;5005112;28;20217;-74
2023/04/26 05:51:23;;;;;;;12.43;6.27;;;14.30;1.00;;;;;;4990498;28;20196;-76
2023/04/26 05:53:50;;;;;;;12.10;7.30;;;14.50;1.00;;;;;;5001613;28;20201;-73
2023/04/26 05:56:17;;;;;;;12.37;6.57;;;14.00;1.00;;;;;;4988253;28;20212;-75
2023/04/26 05:58:45;;;;;;;13.73;7.15;;;14.10;1.00;;;;;;4989126;28;20201;-75
2023/04/26 06:01:12;;;;;;;16.85;6.93;;;15.90;1.00;;;;;;4999607;28;20181;-75
2023/04/26 06:03:40;;;;;;;12.77;6.70;;;16.00;1.00;;;;;;4989303;28;20224;-75
2023/04/26 06:06:08;;;;;;;13.63;7.25;;;15.70;1.00;;;;;;4981079;28;20332;-73
2023/04/26 06:08:37;;;;;;;13.98;6.88;;;15.30;1.00;;;;;;5005146;28;20707;-75
2023/04/26 06:11:05;;;;;;;12.45;6.93;;;15.90;1.00;;;;;;5003122;28;20224;-74
2023/04/26 06:13:32;;;;;;;14.05;7.25;;;15.40;1.00;;;;;;4990200;28;20197;-75
2023/04/26 06:15:59;;;;;;;10.85;6.72;;;16.00;1.00;;;;;;5001789;28;20213;-75
2023/04/26 06:18:26;;;;;;;13.73;6.90;;;16.10;1.00;;;;;;5003927;28;20235;-75
2023/04/26 06:20:53;;;;;;;13.48;6.95;;;15.80;1.00;;;;;;5003539;28;20229;-75
2023/04/26 06:23:20;;;;;;;15.48;7.60;;;14.70;1.00;;;;;;4989596;28;20256;-74
2023/04/26 06:25:47;;;;;;;10.57;7.28;;;11.80;1.00;;;;;;4992677;28;20548;-75
2023/04/26 06:28:15;;;;;;;13.77;7.50;;;11.20;1.00;;;;;;4990169;28;20196;-75
2023/04/26 06:30:42;;;;;;;16.23;7.90;;;10.40;1.00;;;;;;4991887;28;20186;-77
2023/04/26 06:33:09;;;;;;;23.30;8.67;;;9.70;1.00;;;;;;4989896;28;20569;-75
2023/04/26 06:35:41;;;;;;;14.43;8.20;;;9.40;1.00;;;;;;4989349;28;20196;-74
2023/04/26 06:38:11;;;;;;;12.67;8.13;;;9.50;1.00;;;;;;4973547;28;20220;-74
2023/04/26 06:40:39;;;;;;;12.63;7.77;;;10.10;1.00;;;;;;4965969;28;20196;-74
2023/04/26 06:43:06;;;;;;;14.70;7.43;;;10.80;1.00;;;;;;4999619;28;20210;-74
2023/04/26 06:45:35;;;;;;;16.70;7.90;;;11.60;1.00;;;;;;4986746;28;20212;-76
2023/04/26 06:48:04;;;;;;;11.87;6.60;;;11.60;1.00;;;;;;4976438;28;20202;-76
2023/04/26 06:50:31;;;;;;;10.03;7.53;;;11.20;1.00;;;;;;5000727;28;20200;-77
2023/04/26 06:52:58;;;;;;;14.77;7.20;;;12.10;1.00;;;;;;5005317;28;20301;-78
2023/04/26 06:55:26;;;;;;;16.73;7.30;;;13.30;1.00;;;;;;4995114;28;20189;-75
2023/04/26 06:57:53;;;;;;;11.93;7.10;;;13.50;1.00;;;;;;4997071;28;20222;-75
2023/04/26 07:00:20;;;;;;;12.23;7.15;;;14.60;1.00;;;;;;4989830;28;20724;-75
2023/04/26 07:02:47;;;;;;;9.30;6.32;;;14.00;1.00;;;;;;4974916;28;21354;-76
2023/04/26 07:05:14;;;;;;;14.13;6.95;;;13.70;1.00;;;;;;4989747;28;20197;-77
2023/04/26 07:07:42;;;;;;;14.23;6.90;;;13.10;1.00;;;;;;4999571;28;20203;-75
2023/04/26 07:10:09;;;;;;;12.77;7.53;;;13.50;1.00;;;;;;4994178;28;20198;-72
2023/04/26 07:12:36;;;;;;;17.45;6.85;;;13.90;1.00;;;;;;4986337;28;20288;-75
2023/04/26 07:15:05;;;;;;;9.57;6.32;;;16.10;1.00;;;;;;4995489;28;20280;-75
2023/04/26 07:17:32;;;;;;;12.02;6.15;;;18.90;1.00;;;;;;4999268;28;20759;-72
2023/04/26 07:19:59;;;;;;;16.27;7.28;;;18.60;1.00;;;;;;5005980;28;20776;-77
2023/04/26 07:22:27;;;;;;;12.85;6.35;;;16.10;1.00;;;;;;5014746;28;20268;-74
2023/04/26 07:24:53;;;;;;;19.25;7.03;;;17.30;1.00;;;;;;5003209;28;20558;-72
2023/04/26 07:27:20;;;;;;;11.57;7.15;;;18.30;1.00;;;;;;4999262;28;20661;-74
2023/04/26 07:29:47;;;;;;;10.40;6.47;;;17.70;1.00;;;;;;5016769;28;20201;-76
2023/04/26 07:32:15;;;;;;;13.05;6.18;;;18.20;1.00;;;;;;5012173;28;20872;-76
2023/04/26 07:34:42;;;;;;;8.63;4.85;;;18.40;1.00;;;;;;4997467;28;20220;-77
2023/04/26 07:37:08;;;;;;;9.40;5.20;;;18.80;1.00;;;;;;5017101;28;20185;-75
2023/04/26 07:39:35;;;;;;;8.27;5.07;;;20.50;1.00;;;;;;5002265;28;20212;-75
2023/04/26 07:42:02;;;;;;;7.35;4.35;;;22.50;1.00;;;;;;5007288;28;20217;-73
2023/04/26 07:44:30;;;;;;;7.07;3.90;;;22.30;1.00;;;;;;4988730;28;20629;-75
2023/04/26 07:46:56;;;;;;;7.05;4.47;;;24.60;1.00;;;;;;5009239;28;20676;-75
2023/04/26 07:49:23;;;;;;;9.60;4.15;;;25.80;1.00;;;;;;5006092;28;20208;-74
2023/04/26 07:51:51;;;;;;;9.32;5.00;;;23.30;1.00;;;;;;5007422;28;20192;-75
2023/04/26 07:54:18;;;;;;;8.90;4.90;;;19.00;1.00;;;;;;5001852;28;20209;-73
2023/04/26 07:56:45;;;;;;;11.52;4.40;;;18.40;1.00;;;;;;4995513;28;20546;-71
2023/04/26 07:59:12;;;;;;;10.57;4.50;;;19.70;1.00;;;;;;5010162;28;20726;-76
2023/04/26 08:01:39;;;;;;;10.20;4.72;;;18.10;1.00;;;;;;4991747;28;20779;-75
2023/04/26 08:04:06;;;;;;;10.02;4.05;;;17.60;1.00;;;;;;5015463;28;20657;-72
2023/04/26 08:06:34;;;;;;;12.85;4.38;;;21.40;1.00;;;;;;5002850;28;20192;-71
2023/04/26 08:09:03;;;;;;;9.90;4.03;;;18.30;1.00;;;;;;5004511;28;20251;-73
2023/04/26 08:11:30;;;;;;;6.53;3.72;;;17.50;1.00;;;;;;4990119;28;20227;-73
2023/04/26 08:13:57;;;;;;;7.15;3.75;;;16.80;1.00;;;;;;4999102;28;20205;-72
2023/04/26 08:16:24;;;;;;;6.80;2.92;;;16.80;1.00;;;;;;4995823;28;20960;-74
2023/04/26 08:18:51;;;;;;;6.80;3.00;;;16.40;1.00;;;;;;5003678;28;20579;-77
2023/04/26 08:21:18;;;;;;;6.07;3.33;;;15.10;1.00;;;;;;4995518;28;20241;-75
2023/04/26 08:23:45;;;;;;;9.02;3.35;;;14.10;1.00;;;;;;4992654;28;20224;-76
2023/04/26 08:26:12;;;;;;;4.72;2.10;;;13.50;1.00;;;;;;5007285;28;20232;-75
2023/04/26 08:28:39;;;;;;;6.90;2.80;;;13.00;1.00;;;;;;4997208;28;20201;-72
2023/04/26 08:31:07;;;;;;;4.27;2.57;;;13.00;1.00;;;;;;5008208;28;20193;-75
2023/04/26 08:33:34;;;;;;;3.88;2.13;;;13.50;1.00;;;;;;5000747;28;20201;-75
2023/04/26 08:36:01;;;;;;;4.63;2.35;;;16.20;1.00;;;;;;4989381;28;20276;-73
2023/04/26 08:38:28;;;;;;;4.30;2.08;;;19.60;1.00;;;;;;5007366;28;20213;-73
2023/04/26 08:41:00;;;;;;;7.50;2.58;;;21.80;1.00;;;;;;5003112;28;20197;-74
2023/04/26 08:43:28;;;;;;;7.15;2.50;;;22.40;1.00;;;;;;4989824;28;20552;-74
2023/04/26 08:45:58;;;;;;;3.90;2.13;;;22.10;1.00;;;;;;5004753;28;20207;-75
2023/04/26 08:48:28;;;;;;;3.85;2.10;;;19.80;1.00;;;;;;5002607;28;20742;-74
2023/04/26 08:50:55;;;;;;;4.40;1.75;;;19.00;1.00;;;;;;5008087;28;20685;-74
2023/04/26 08:53:23;;;;;;;3.20;2.03;;;19.60;1.00;;;;;;5008085;28;20215;-74
2023/04/26 08:55:50;;;;;;;5.93;1.90;;;20.00;1.00;;;;;;5005760;28;20246;-73
2023/04/26 08:58:18;;;;;;;6.15;1.95;;;18.70;1.00;;;;;;5012276;28;20244;-72
2023/04/26 09:00:45;;;;;;;3.42;2.30;;;19.00;1.00;;;;;;4997476;28;20280;-71
2023/04/26 09:03:13;;;;;;;5.68;2.42;;;18.00;1.00;;;;;;5015050;28;20232;-75
2023/04/26 09:05:44;;;;;;;4.95;2.70;;;17.00;1.00;;;;;;4979872;28;20228;-73
2023/04/26 09:08:21;;;;;;;10.00;3.60;;;16.70;1.00;;;;;;5016247;28;20222;-71
2023/04/26 09:10:48;;;;;;;5.85;2.40;;;17.10;1.00;;;;;;5018903;28;20250;-74
2023/04/26 09:13:15;;;;;;;8.32;2.42;;;16.70;1.00;;;;;;4998915;28;20279;-73
2023/04/26 09:15:42;;;;;;;5.40;1.80;;;17.00;1.00;;;;;;5020287;28;20201;-72
2023/04/26 09:18:17;;;;;;;4.85;2.35;;;16.70;1.00;;;;;;4991440;28;20203;-73
2023/04/26 09:20:44;;;;;;;7.40;2.28;;;15.80;1.00;;;;;;5004987;28;20234;-74
2023/04/26 09:23:11;;;;;;;5.10;2.20;;;15.00;1.00;;;;;;5018839;28;20612;-75
2023/04/26 09:25:39;;;;;;;5.45;1.98;;;14.10;1.00;;;;;;5022960;28;20299;-74
2023/04/26 09:28:20;;;;;;;6.30;2.27;;;13.50;1.00;;;;;;4969630;28;20534;-73
2023/04/26 09:30:47;;;;;;;5.87;2.60;;;13.10;1.00;;;;;;5011712;28;20201;-75
2023/04/26 09:33:15;;;;;;;7.57;3.40;;;12.60;1.00;;;;;;4993999;28;20204;-75
2023/04/26 09:35:43;;;;;;;5.80;3.30;;;12.50;1.00;;;;;;5003213;28;20452;-72
2023/04/26 09:38:12;;;;;;;11.53;4.33;;;12.50;1.00;;;;;;5017816;28;20195;-74
2023/04/26 09:40:45;;;;;;;7.40;3.03;;;12.20;1.00;;;;;;5008154;28;20201;-75
2023/04/26 09:43:21;;;;;;;8.87;2.63;;;11.70;1.00;;;;;;5023068;28;20615;-73
2023/04/26 09:45:56;;;;;;;7.93;3.13;;;11.90;1.00;;;;;;4988682;28;20600;-72
2023/04/26 09:48:32;;;;;;;4.53;2.77;;;11.60;1.00;;;;;;5016884;28;20196;-74
2023/04/26 09:51:01;;;;;;;6.33;3.43;;;11.30;1.00;;;;;;5021745;28;20242;-74
2023/04/26 09:53:36;;;;;;;9.23;3.30;;;11.30;1.00;;;;;;5004806;28;20199;-74
2023/04/26 09:56:10;;;;;;;6.90;3.37;;;11.50;1.00;;;;;;5020668;28;20214;-74
2023/04/26 09:58:57;;;;;;;12.07;7.00;;;11.70;1.00;;;;;;5015092;28;20216;-73
2023/04/26 10:01:25;;;;;;;4.63;2.87;;;11.50;1.00;;;;;;5019051;28;20242;-75
2023/04/26 10:03:54;;;;;;;6.50;2.83;;;12.10;1.00;;;;;;5014031;28;20247;-72
2023/04/26 10:06:21;;;;;;;6.60;3.40;;;12.20;1.00;;;;;;5016605;28;20188;-73
2023/04/26 10:08:48;;;;;;;4.90;2.20;;;12.50;1.00;;;;;;5002362;28;20208;-74
2023/04/26 10:11:16;;;;;;;7.87;3.20;;;13.70;1.00;;;;;;5007619;28;20684;-74
2023/04/26 10:13:43;;;;;;;8.23;2.97;;;13.90;1.00;;;;;;5019109;28;20224;-72
2023/04/26 10:16:11;;;;;;;5.53;2.03;;;14.00;1.00;;;;;;5015329;28;20200;-75
2023/04/26 10:18:38;;;;;;;19.55;6.65;;;14.30;1.00;;;;;;5016857;28;20230;-75
2023/04/26 10:21:24;;;;;;;3.70;1.90;;;14.20;1.00;;;;;;5016630;28;20232;-74
2023/04/26 10:23:51;;;;;;;5.43;2.10;;;13.60;1.00;;;;;;5017629;28;20668;-74
2023/04/26 10:26:50;;;;;;;5.78;2.38;;;13.70;1.00;;;;;;5016848;28;20234;-73
2023/04/26 10:29:21;;;;;;;5.20;2.53;;;13.70;1.00;;;;;;5018059;28;20200;-75
2023/04/26 10:32:00;;;;;;;3.67;2.10;;;14.70;1.00;;;;;;5017374;28;20299;-74
2023/04/26 10:34:31;;;;;;;7.25;2.20;;;15.90;1.00;;;;;;5006100;28;20188;-77
2023/04/26 10:37:10;;;;;;;3.55;1.73;;;17.00;1.00;;;;;;5023818;28;20240;-77
2023/04/26 10:39:45;;;;;;;7.75;3.10;;;17.40;1.00;;;;;;5021726;28;20203;-76
2023/04/26 10:42:29;;;;;;;5.85;2.10;;;17.90;1.00;;;;;;5019598;28;20188;-77
2023/04/26 10:45:17;;;;;;;4.82;1.90;;;18.60;1.00;;;;;;5023527;28;20188;-74
2023/04/26 10:47:44;;;;;;;4.13;1.60;;;19.70;1.00;;;;;;5021975;28;20718;-74
2023/04/26 10:50:11;;;;;;;3.28;1.80;;;19.90;1.00;;;;;;5004072;28;20688;-75
2023/04/26 10:53:00;;;;;;;4.13;1.75;;;18.60;1.00;;;;;;5019662;28;20262;-77
2023/04/26 10:55:40;;;;;;;4.20;2.00;;;17.10;1.00;;;;;;5019059;28;20295;-73
2023/04/26 10:58:34;;;;;;;5.88;2.28;;;16.10;1.00;;;;;;5021250;28;20539;-76
2023/04/26 11:01:19;;;;;;;6.35;1.90;;;15.10;1.00;;;;;;5006932;28;20311;-77
2023/04/26 11:03:55;;;;;;;5.55;2.20;;;14.70;1.00;;;;;;5014014;28;20224;-77
2023/04/26 11:06:25;;;;;;;5.65;2.40;;;14.40;1.00;;;;;;5010566;28;20250;-80
2023/04/26 11:08:55;;;;;;;4.82;2.17;;;13.70;1.00;;;;;;5024308;28;20200;-73
2023/04/26 11:11:25;;;;;;;3.63;2.10;;;13.10;1.00;;;;;;5024133;28;20279;-79
2023/04/26 11:13:52;;;;;;;5.67;2.30;;;12.50;1.00;;;;;;5006306;28;20208;-75
2023/04/26 11:16:20;;;;;;;3.67;2.10;;;12.30;1.00;;;;;;5007451;28;20220;-79
2023/04/26 11:18:47;;;;;;;3.63;2.20;;;12.40;1.00;;;;;;5022074;28;20681;-79
2023/04/26 11:21:16;;;;;;;6.90;2.57;;;12.60;1.00;;;;;;5020673;28;20232;-79
2023/04/26 11:23:52;;;;;;;5.77;2.30;;;12.70;1.00;;;;;;5003590;28;20276;-76
2023/04/26 11:26:19;;;;;;;10.07;2.83;;;13.50;1.00;;;;;;5001145;28;20908;-78
2023/04/26 11:28:48;;;;;;;4.63;1.90;;;13.80;1.00;;;;;;5005305;28;20652;-77
2023/04/26 11:31:17;;;;;;;5.63;2.53;;;13.90;1.00;;;;;;5015332;28;20676;-76
2023/04/26 11:33:45;;;;;;;4.60;2.60;;;14.00;1.00;;;;;;5024009;28;20556;-78
2023/04/26 11:36:18;;;;;;;6.00;3.30;;;13.90;1.00;;;;;;5001904;28;20196;-77
2023/04/26 11:38:45;;;;;;;8.80;4.30;;;13.90;1.00;;;;;;5025196;28;20211;-76
2023/04/26 11:41:12;;;;;;;6.07;2.33;;;14.00;1.00;;;;;;5003057;28;20197;-75
2023/04/26 11:43:40;;;;;;;4.60;2.77;;;14.00;1.00;;;;;;5004427;28;20660;-78
2023/04/26 11:46:08;;;;;;;5.35;3.08;;;14.20;1.00;;;;;;5002539;28;20680;-76
2023/04/26 11:48:38;;;;;;;9.63;3.17;;;14.30;1.00;;;;;;4998385;28;20299;-76
2023/04/26 11:51:07;;;;;;;3.92;2.50;;;14.40;1.00;;;;;;5000605;28;20203;-75
2023/04/26 11:53:36;;;;;;;5.38;2.30;;;14.60;1.00;;;;;;5005898;28;20244;-75
2023/04/26 11:56:17;;;;;;;7.72;2.60;;;14.60;1.00;;;;;;5009681;28;20199;-79
2023/04/26 11:58:52;;;;;;;4.18;2.42;;;14.40;1.00;;;;;;5023237;28;20192;-79
2023/04/26 12:01:24;;;;;;;5.85;2.35;;;14.40;1.00;;;;;;5023003;28;20203;-77
2023/04/26 12:03:53;;;;;;;8.02;3.33;;;14.70;1.00;;;;;;4990988;28;20704;-77
2023/04/26 12:06:41;;;;;;;12.85;4.68;;;14.90;1.00;;;;;;4998701;28;20204;-79
2023/04/26 12:09:10;;;;;;;8.63;2.83;;;15.10;1.00;;;;;;5005130;28;20192;-77
2023/04/26 12:11:37;;;;;;;9.75;2.70;;;15.30;1.00;;;;;;5020005;28;20254;-78
2023/04/26 12:14:06;;;;;;;4.90;2.70;;;15.60;1.00;;;;;;5009220;28;20250;-76
2023/04/26 12:16:36;;;;;;;7.97;3.10;;;16.00;1.00;;;;;;5021086;28;20539;-78
2023/04/26 12:19:07;;;;;;;7.20;2.92;;;16.10;1.00;;;;;;5021827;28;20228;-78
2023/04/26 12:21:42;;;;;;;7.28;2.50;;;15.70;1.00;;;;;;5013406;28;20519;-76
2023/04/26 12:24:28;;;;;;;4.85;2.30;;;15.70;1.00;;;;;;4986314;28;20660;-77
2023/04/26 12:26:55;;;;;;;4.28;1.98;;;14.80;1.00;;;;;;4998413;28;20235;-80
2023/04/26 12:29:22;;;;;;;4.43;2.28;;;14.70;1.00;;;;;;5015658;28;20299;-79
2023/04/26 12:31:50;;;;;;;6.55;2.50;;;14.40;1.00;;;;;;5014612;28;20192;-80
2023/04/26 12:34:17;;;;;;;5.10;2.22;;;14.40;1.00;;;;;;4997326;28;20833;-80
2023/04/26 12:36:44;;;;;;;3.57;1.90;;;14.20;1.00;;;;;;5011942;28;20307;-79
2023/04/26 12:39:12;;;;;;;4.47;2.03;;;14.30;1.00;;;;;;5001509;28;20262;-81
2023/04/26 12:41:40;;;;;;;4.68;2.20;;;14.10;1.00;;;;;;5018572;28;20204;-75
2023/04/26 12:44:08;;;;;;;5.77;2.53;;;13.90;1.00;;;;;;5019126;28;20730;-79
2023/04/26 12:46:35;;;;;;;5.10;2.20;;;14.00;1.00;;;;;;5001939;28;20259;-77
2023/04/26 12:49:03;;;;;;;5.20;2.53;;;13.90;1.00;;;;;;5002736;28;20704;-78
2023/04/26 12:51:33;;;;;;;5.03;2.50;;;13.90;1.00;;;;;;5001608;28;20201;-76
2023/04/26 12:54:00;;;;;;;4.53;2.20;;;14.10;1.00;;;;;;5007218;28;20208;-76
2023/04/26 12:56:28;;;;;;;4.85;2.40;;;14.00;1.00;;;;;;4994679;28;20204;-77
2023/04/26 12:58:55;;;;;;;4.00;2.22;;;14.30;1.00;;;;;;5021461;28;20271;-72
2023/04/26 13:01:22;;;;;;;6.90;2.50;;;14.30;1.00;;;;;;5012826;28;20207;-76
2023/04/26 13:03:49;;;;;;;8.70;2.92;;;14.60;1.00;;;;;;5015357;28;20284;-74